Latest Coastal Weather Observations for Rowley Shoals

IDW60701

Issued at 9:53 am WST Sunday 25 September 2016 (issued every 10 minutes, with the page automatically refreshed every 10 minutes)

About coastal observations | Map of coastal stations | Coastal observations for WA | Marine services | Other Formats
Station Details ID: 200713 Name: ROWLEY SHOALS Lat: -17.52 Lon: 118.95 Height: 0.0 m
Data from the previous 72 hours. | See also: Recent months at Rowley Shoals
Date/Time
WST
Temp
°C
Wind Pressure Rain since
9am
mm
Weather Cloud Vis
km
Sea
Height
m
Swell
Dir  Spd
kts
Gust
kts
hPa Trend Height
m
Period
s
Dir
25/09:30am 25.5 SSW 10 11 1011.4 - - - - - - - - -
25/09:00am 25.4 SW 10 13 1011.5 - - - - - - - - -
25/08:30am 25.5 SSW 9 11 1011.3 - - - - - - - - -
25/08:00am 25.5 SW 9 11 1011.2 - - - - - - - - -
25/07:30am 25.6 SW 9 12 1010.9 - - - - - - - - -
25/07:00am 25.7 SW 9 10 1010.8 - - - - - - - - -
25/06:30am 25.7 WSW 9 11 1010.6 - - - - - - - - -
25/06:00am 25.9 WSW 9 11 1010.3 - - - - - - - - -
25/05:30am 25.8 WSW 10 11 1010.0 - - - - - - - - -
25/05:00am 26.0 W 8 10 1009.6 - - - - - - - - -
25/04:30am 26.0 W 8 9 1009.1 - - - - - - - - -
25/04:00am 25.9 W 8 9 1009.1 - - - - - - - - -
25/03:30am 26.0 W 7 9 1009.0 - - - - - - - - -
25/03:00am 26.0 W 8 9 1009.1 - - - - - - - - -
25/02:30am 26.3 W 7 8 1009.0 - - - - - - - - -
25/02:00am 26.1 W 7 9 1009.0 - - - - - - - - -
25/01:30am 26.2 W 7 9 1009.3 - - - - - - - - -
25/01:00am 26.4 W 7 9 1009.4 - - - - - - - - -
25/12:30am 26.4 W 9 11 1009.6 - - - - - - - - -
25/12:00am 26.3 W 10 11 1009.8 - - - - - - - - -
 
Date/Time
WST
Temp
°C
Wind Pressure Rain since
9am
mm
Weather Cloud Vis
km
Sea
Height
m
Swell
Dir  Spd
kts
Gust
kts
hPa Trend Height
m
Period
s
Dir
24/11:30pm 26.3 W 9 11 1010.2 - - - - - - - - -
24/11:00pm 26.3 W 9 10 1010.3 - - - - - - - - -
24/10:30pm 26.3 W 8 10 1010.6 - - - - - - - - -
24/10:00pm 26.2 W 7 8 1010.7 - - - - - - - - -
24/09:30pm 26.2 WNW 7 8 1010.9 - - - - - - - - -
24/09:00pm 26.2 WNW 7 8 1010.8 - - - - - - - - -
24/08:30pm 26.1 WNW 6 7 1010.7 - - - - - - - - -
24/08:00pm 26.1 WNW 5 7 1010.6 - - - - - - - - -
24/07:30pm 26.0 WNW 4 5 1010.1 - - - - - - - - -
24/07:00pm 26.0 NW 4 6 1009.9 - - - - - - - - -
24/06:30pm 25.9 NNW 4 6 1009.5 - - - - - - - - -
24/06:00pm 25.9 NNW 4 5 1009.3 - - - - - - - - -
24/05:30pm 25.9 N 4 5 1009.0 - - - - - - - - -
24/05:00pm 26.0 NE 1 4 1008.8 - - - - - - - - -
24/04:30pm 26.4 NE 3 4 1008.7 - - - - - - - - -
24/04:00pm 26.7 SE 3 4 1008.6 - - - - - - - - -
24/03:30pm 26.3 SE 3 5 1008.5 - - - - - - - - -
24/03:00pm 26.6 SSE 3 5 1008.4 - - - - - - - - -
24/02:30pm 26.2 SE 5 7 1008.6 - - - - - - - - -
24/02:00pm 26.2 SSE 4 5 1008.9 - - - - - - - - -
24/01:30pm 26.7 SSE 5 7 1009.3 - - - - - - - - -
24/01:00pm 26.8 SSE 6 8 1009.5 - - - - - - - - -
24/12:30pm 27.1 SSE 6 8 1009.8 - - - - - - - - -
24/12:00pm 26.8 S 7 9 1009.9 - - - - - - - - -
24/11:30am 26.0 SSW 9 11 1010.4 - - - - - - - - -
24/11:00am 26.3 SSW 9 11 1010.7 - - - - - - - - -
24/10:30am 26.0 SSW 11 14 1011.1 - - - - - - - - -
24/10:00am 25.8 SSW 11 14 1011.2 - - - - - - - - -
24/09:30am 25.8 SSW 13 15 1011.4 - - - - - - - - -
24/09:00am 25.6 SSW 13 16 1011.4 - - - - - - - - -
24/08:30am 25.7 SW 14 16 1011.5 - - - - - - - - -
24/08:00am 25.6 SW 16 18 1011.3 - - - - - - - - -
24/07:30am 25.3 SW 15 17 1010.8 - - - - - - - - -
24/07:00am 25.4 SW 14 16 1010.6 - - - - - - - - -
24/06:30am 25.3 SW 15 17 1010.3 - - - - - - - - -
24/06:00am 25.1 SW 15 17 1010.1 - - - - - - - - -
24/05:30am 25.2 SW 14 16 1010.0 - - - - - - - - -
24/05:00am 25.0 SW 13 15 1009.8 - - - - - - - - -
24/04:30am 25.0 WSW 13 15 1009.7 - - - - - - - - -
24/04:00am 25.2 WSW 13 16 1009.7 - - - - - - - - -
24/03:30am 25.2 WSW 13 16 1009.6 - - - - - - - - -
24/03:00am 25.3 WSW 12 14 1009.6 - - - - - - - - -
24/02:30am 25.3 WSW 12 13 1009.6 - - - - - - - - -
24/02:00am 25.2 W 11 13 1009.6 - - - - - - - - -
24/01:30am 25.1 W 10 13 1009.9 - - - - - - - - -
24/01:00am 25.2 W 10 13 1010.0 - - - - - - - - -
24/12:30am 25.0 W 10 11 1010.2 - - - - - - - - -
24/12:00am 25.0 WSW 9 11 1010.5 - - - - - - - - -
 
Date/Time
WST
Temp
°C
Wind Pressure Rain since
9am
mm
Weather Cloud Vis
km
Sea
Height
m
Swell
Dir  Spd
kts
Gust
kts
hPa Trend Height
m
Period
s
Dir
23/11:30pm 25.0 WSW 9 12 1010.8 - - - - - - - - -
23/11:00pm 24.8 WSW 9 11 1011.0 - - - - - - - - -
23/10:30pm 25.0 WSW 11 13 1011.2 - - - - - - - - -
23/10:00pm 24.9 SW 10 13 1011.3 - - - - - - - - -
23/09:30pm 24.9 SW 9 11 1011.3 - - - - - - - - -
23/09:00pm 24.9 SW 11 12 1011.4 - - - - - - - - -
23/08:30pm 24.8 SW 11 14 1011.1 - - - - - - - - -
23/08:00pm 24.9 SW 13 15 1010.9 - - - - - - - - -
23/07:30pm 25.0 SW 14 16 1010.4 - - - - - - - - -
23/07:00pm 24.7 SSW 14 17 1010.2 - - - - - - - - -
23/06:30pm 24.9 SW 14 16 1009.8 - - - - - - - - -
23/06:00pm 24.7 SSW 14 17 1009.6 - - - - - - - - -
23/05:30pm 24.8 SSW 14 17 1009.1 - - - - - - - - -
23/05:00pm 25.1 SSW 14 17 1009.0 - - - - - - - - -
23/04:30pm 24.8 SSW 15 18 1008.7 - - - - - - - - -
23/04:00pm 24.9 SSW 16 19 1008.7 - - - - - - - - -
23/03:30pm 25.3 SSW 15 18 1008.9 - - - - - - - - -
23/03:00pm 25.4 SSW 16 19 1009.1 - - - - - - - - -
23/02:30pm 25.3 SSW 16 20 1009.3 - - - - - - - - -
23/02:00pm 25.4 SSW 15 18 1009.2 - - - - - - - - -
23/01:30pm 25.6 SSW 15 18 1009.5 - - - - - - - - -
23/01:00pm 25.7 SSW 15 17 1009.7 - - - - - - - - -
23/12:30pm 25.4 SSW 15 18 1010.1 - - - - - - - - -
23/12:00pm 25.6 SSW 16 20 1010.3 - - - - - - - - -
23/11:30am 25.8 SSW 15 17 1010.7 - - - - - - - - -
23/11:00am 26.0 SW 16 19 1010.9 - - - - - - - - -
23/10:30am 25.8 SW 15 16 1011.4 - - - - - - - - -
23/10:00am 25.8 SW 15 18 1011.6 - - - - - - - - -
23/09:30am 25.8 SW 14 16 1011.7 - - - - - - - - -
23/09:00am 25.5 SW 14 17 1011.9 - - - - - - - - -
23/08:30am 25.8 SW 13 15 1012.1 - - - - - - - - -
23/08:00am 25.7 SW 14 16 1012.0 - - - - - - - - -
23/07:30am 25.5 SW 14 16 1011.9 - - - - - - - - -
23/07:00am 25.5 SW 13 16 1011.7 - - - - - - - - -
23/06:30am 25.4 SW 12 15 1011.4 - - - - - - - - -
23/06:00am 25.4 SW 12 15 1011.1 - - - - - - - - -
23/05:30am 25.6 SW 12 14 1010.8 - - - - - - - - -
23/05:00am 25.6 SW 11 14 1010.7 - - - - - - - - -
23/04:30am 25.7 SW 10 12 1010.5 - - - - - - - - -
23/04:00am 25.6 SW 12 13 1010.3 - - - - - - - - -
23/03:30am 25.8 SW 11 13 1010.1 - - - - - - - - -
23/03:00am 25.9 SW 9 11 1010.1 - - - - - - - - -
23/02:30am 25.9 SW 9 11 1010.2 - - - - - - - - -
23/02:00am 25.9 SW 10 11 1010.3 - - - - - - - - -
23/01:30am 25.9 SW 9 10 1010.6 - - - - - - - - -
23/01:00am 26.0 SW 10 11 1010.9 - - - - - - - - -
23/12:30am 26.1 SW 8 9 1011.3 - - - - - - - - -
23/12:00am 26.2 SW 5 6 1011.7 - - - - - - - - -
 
Date/Time
WST
Temp
°C
Wind Pressure Rain since
9am
mm
Weather Cloud Vis
km
Sea
Height
m
Swell
Dir  Spd
kts
Gust
kts
hPa Trend Height
m
Period
s
Dir
22/11:30pm 26.3 CALM 0 3 1011.8 - - - - - - - - -
22/11:00pm 26.3 SSW 4 4 1012.0 - - - - - - - - -
22/10:30pm 26.2 SSW 3 4 1012.3 - - - - - - - - -
22/10:00pm 26.1 S 2 3 1012.3 - - - - - - - - -
22/09:30pm 26.2 SSE 3 4 1012.6 - - - - - - - - -
22/09:00pm 26.4 SE 4 5 1012.6 - - - - - - - - -
22/08:30pm 26.5 SE 5 6 1012.4 - - - - - - - - -
22/08:00pm 26.5 SE 5 6 1012.3 - - - - - - - - -
22/07:30pm 26.5 ESE 6 7 1012.0 - - - - - - - - -
22/07:00pm 26.3 SE 6 6 1011.8 - - - - - - - - -
22/06:30pm 26.4 SE 5 6 1011.7 - - - - - - - - -
22/06:00pm 26.2 SE 6 7 1011.5 - - - - - - - - -
22/05:30pm 26.3 SE 7 9 1011.3 - - - - - - - - -
22/05:00pm 26.5 SE 8 9 1011.1 - - - - - - - - -
22/04:30pm 26.2 SE 8 9 1011.2 - - - - - - - - -
22/04:00pm 26.4 SSE 9 10 1011.1 - - - - - - - - -
22/03:30pm 26.8 SSE 9 11 1010.9 - - - - - - - - -
22/03:00pm 27.1 SSE 11 13 1010.8 - - - - - - - - -
22/02:30pm 26.8 SSE 10 12 1010.8 - - - - - - - - -
22/02:00pm 26.6 SSE 10 12 1011.1 - - - - - - - - -
22/01:30pm 26.7 SSE 9 12 1011.3 - - - - - - - - -
22/01:00pm 26.5 S 8 10 1011.4 - - - - - - - - -
22/12:30pm 26.7 S 10 12 1011.8 - - - - - - - - -
22/12:00pm 26.7 S 9 11 1012.2 - - - - - - - - -
22/11:30am 27.3 S 8 9 1012.4 - - - - - - - - -
22/11:00am 27.4 SSW 8 9 1012.6 - - - - - - - - -
22/10:30am 27.2 SSW 6 7 1012.8 - - - - - - - - -
22/10:00am 27.5 SSW 5 6 1012.8 - - - - - - - - -

Other Formats:

Comma delimited format used in spreadsheet applications
http://www.bom.gov.au/fwo/IDW60701/IDW60701.94207.axf

JavaScript Object Notation format (JSON) in row-major order
http://www.bom.gov.au/fwo/IDW60701/IDW60701.94207.json